sensor_id;sensor_type;location;lat;lon;timestamp;P1;durP1;ratioP1;P2;durP2;ratioP2
9438;SDS011;5176;42.622;25.386;2023-08-17T00:02:10;9.07;;;8.13;;
9438;SDS011;5176;42.622;25.386;2023-08-17T00:04:37;9.45;;;8.55;;
9438;SDS011;5176;42.622;25.386;2023-08-17T00:07:05;9.15;;;8.25;;
9438;SDS011;5176;42.622;25.386;2023-08-17T00:09:32;11.77;;;8.57;;
9438;SDS011;5176;42.622;25.386;2023-08-17T00:12:01;9.65;;;8.65;;
9438;SDS011;5176;42.622;25.386;2023-08-17T00:14:29;9.93;;;8.93;;
9438;SDS011;5176;42.622;25.386;2023-08-17T00:16:56;10.93;;;9.82;;
9438;SDS011;5176;42.622;25.386;2023-08-17T00:19:23;9.18;;;8.23;;
9438;SDS011;5176;42.622;25.386;2023-08-17T00:21:51;9.90;;;8.80;;
9438;SDS011;5176;42.622;25.386;2023-08-17T00:24:18;9.73;;;8.70;;
9438;SDS011;5176;42.622;25.386;2023-08-17T00:26:46;10.13;;;8.68;;
9438;SDS011;5176;42.622;25.386;2023-08-17T00:29:14;11.65;;;9.18;;
9438;SDS011;5176;42.622;25.386;2023-08-17T00:31:42;9.73;;;8.70;;
9438;SDS011;5176;42.622;25.386;2023-08-17T00:34:10;10.23;;;8.82;;
9438;SDS011;5176;42.622;25.386;2023-08-17T00:36:37;10.48;;;9.38;;
9438;SDS011;5176;42.622;25.386;2023-08-17T00:39:04;11.40;;;8.90;;
9438;SDS011;5176;42.622;25.386;2023-08-17T00:41:31;10.68;;;9.50;;
9438;SDS011;5176;42.622;25.386;2023-08-17T00:43:59;9.88;;;8.95;;
9438;SDS011;5176;42.622;25.386;2023-08-17T00:46:28;11.93;;;9.10;;
9438;SDS011;5176;42.622;25.386;2023-08-17T00:48:56;9.40;;;8.50;;
9438;SDS011;5176;42.622;25.386;2023-08-17T00:51:24;9.73;;;8.75;;
9438;SDS011;5176;42.622;25.386;2023-08-17T00:53:53;9.40;;;8.60;;
9438;SDS011;5176;42.622;25.386;2023-08-17T00:56:24;9.40;;;8.52;;
9438;SDS011;5176;42.622;25.386;2023-08-17T00:58:52;9.35;;;8.55;;
9438;SDS011;5176;42.622;25.386;2023-08-17T01:01:20;9.73;;;8.75;;
9438;SDS011;5176;42.622;25.386;2023-08-17T01:03:50;10.25;;;8.98;;
9438;SDS011;5176;42.622;25.386;2023-08-17T01:06:18;9.80;;;8.32;;
9438;SDS011;5176;42.622;25.386;2023-08-17T01:08:45;10.10;;;9.15;;
9438;SDS011;5176;42.622;25.386;2023-08-17T01:11:15;13.45;;;8.57;;
9438;SDS011;5176;42.622;25.386;2023-08-17T01:13:49;9.95;;;9.05;;
9438;SDS011;5176;42.622;25.386;2023-08-17T01:16:31;10.10;;;9.10;;
9438;SDS011;5176;42.622;25.386;2023-08-17T01:19:03;13.05;;;9.77;;
9438;SDS011;5176;42.622;25.386;2023-08-17T01:21:35;10.25;;;9.35;;
9438;SDS011;5176;42.622;25.386;2023-08-17T01:24:10;10.40;;;9.40;;
9438;SDS011;5176;42.622;25.386;2023-08-17T01:26:38;11.38;;;9.98;;
9438;SDS011;5176;42.622;25.386;2023-08-17T01:29:05;11.93;;;10.52;;
9438;SDS011;5176;42.622;25.386;2023-08-17T01:31:35;12.23;;;10.82;;
9438;SDS011;5176;42.622;25.386;2023-08-17T01:34:08;11.80;;;10.73;;
9438;SDS011;5176;42.622;25.386;2023-08-17T01:36:46;12.00;;;10.80;;
9438;SDS011;5176;42.622;25.386;2023-08-17T01:39:20;10.95;;;9.95;;
9438;SDS011;5176;42.622;25.386;2023-08-17T01:41:50;11.68;;;10.32;;
9438;SDS011;5176;42.622;25.386;2023-08-17T01:44:19;10.60;;;9.68;;
9438;SDS011;5176;42.622;25.386;2023-08-17T01:46:47;11.38;;;10.18;;
9438;SDS011;5176;42.622;25.386;2023-08-17T01:49:15;11.45;;;10.10;;
9438;SDS011;5176;42.622;25.386;2023-08-17T01:51:42;11.50;;;10.50;;
9438;SDS011;5176;42.622;25.386;2023-08-17T01:54:09;13.32;;;12.02;;
9438;SDS011;5176;42.622;25.386;2023-08-17T01:56:38;11.82;;;10.75;;
9438;SDS011;5176;42.622;25.386;2023-08-17T01:59:05;12.30;;;11.20;;
9438;SDS011;5176;42.622;25.386;2023-08-17T02:01:32;13.07;;;11.77;;
9438;SDS011;5176;42.622;25.386;2023-08-17T02:04:00;12.75;;;11.23;;
9438;SDS011;5176;42.622;25.386;2023-08-17T02:06:27;11.75;;;10.75;;
9438;SDS011;5176;42.622;25.386;2023-08-17T02:08:55;12.68;;;11.07;;
9438;SDS011;5176;42.622;25.386;2023-08-17T02:11:22;12.20;;;10.95;;
9438;SDS011;5176;42.622;25.386;2023-08-17T02:13:51;11.43;;;10.32;;
9438;SDS011;5176;42.622;25.386;2023-08-17T02:16:18;10.82;;;9.65;;
9438;SDS011;5176;42.622;25.386;2023-08-17T02:18:45;11.75;;;10.07;;
9438;SDS011;5176;42.622;25.386;2023-08-17T02:21:13;10.88;;;9.77;;
9438;SDS011;5176;42.622;25.386;2023-08-17T02:23:40;10.65;;;9.70;;
9438;SDS011;5176;42.622;25.386;2023-08-17T02:26:07;10.10;;;9.13;;
9438;SDS011;5176;42.622;25.386;2023-08-17T02:28:34;10.63;;;9.60;;
9438;SDS011;5176;42.622;25.386;2023-08-17T02:31:03;10.23;;;9.13;;
9438;SDS011;5176;42.622;25.386;2023-08-17T02:33:31;9.45;;;8.57;;
9438;SDS011;5176;42.622;25.386;2023-08-17T02:36:00;11.05;;;8.70;;
9438;SDS011;5176;42.622;25.386;2023-08-17T02:38:27;8.70;;;7.90;;
9438;SDS011;5176;42.622;25.386;2023-08-17T02:40:54;11.20;;;8.32;;
9438;SDS011;5176;42.622;25.386;2023-08-17T02:43:21;9.13;;;7.85;;
9438;SDS011;5176;42.622;25.386;2023-08-17T02:45:48;8.75;;;7.95;;
9438;SDS011;5176;42.622;25.386;2023-08-17T02:48:18;9.80;;;8.00;;
9438;SDS011;5176;42.622;25.386;2023-08-17T02:50:45;8.48;;;7.65;;
9438;SDS011;5176;42.622;25.386;2023-08-17T02:53:12;9.05;;;7.72;;
9438;SDS011;5176;42.622;25.386;2023-08-17T02:55:39;9.32;;;8.40;;
9438;SDS011;5176;42.622;25.386;2023-08-17T02:58:06;9.68;;;7.97;;
9438;SDS011;5176;42.622;25.386;2023-08-17T03:00:34;10.80;;;8.13;;
9438;SDS011;5176;42.622;25.386;2023-08-17T03:03:01;10.05;;;8.60;;
9438;SDS011;5176;42.622;25.386;2023-08-17T03:05:30;9.43;;;8.38;;
9438;SDS011;5176;42.622;25.386;2023-08-17T03:07:57;9.70;;;8.43;;
9438;SDS011;5176;42.622;25.386;2023-08-17T03:10:25;10.65;;;8.88;;
9438;SDS011;5176;42.622;25.386;2023-08-17T03:12:52;9.27;;;8.38;;
9438;SDS011;5176;42.622;25.386;2023-08-17T03:15:19;10.60;;;8.90;;
9438;SDS011;5176;42.622;25.386;2023-08-17T03:17:46;8.70;;;8.00;;
9438;SDS011;5176;42.622;25.386;2023-08-17T03:20:14;10.98;;;9.20;;
9438;SDS011;5176;42.622;25.386;2023-08-17T03:22:42;10.50;;;8.60;;
9438;SDS011;5176;42.622;25.386;2023-08-17T03:25:09;10.23;;;9.23;;
9438;SDS011;5176;42.622;25.386;2023-08-17T03:27:36;10.48;;;9.35;;
9438;SDS011;5176;42.622;25.386;2023-08-17T03:30:04;9.75;;;8.88;;
9438;SDS011;5176;42.622;25.386;2023-08-17T03:32:32;11.10;;;10.10;;
9438;SDS011;5176;42.622;25.386;2023-08-17T03:34:59;10.73;;;9.38;;
9438;SDS011;5176;42.622;25.386;2023-08-17T03:37:27;11.82;;;9.57;;
9438;SDS011;5176;42.622;25.386;2023-08-17T03:39:55;11.27;;;10.27;;
9438;SDS011;5176;42.622;25.386;2023-08-17T03:42:23;11.10;;;10.00;;
9438;SDS011;5176;42.622;25.386;2023-08-17T03:44:50;10.63;;;9.63;;
9438;SDS011;5176;42.622;25.386;2023-08-17T03:47:17;11.10;;;9.25;;
9438;SDS011;5176;42.622;25.386;2023-08-17T03:49:44;9.77;;;8.88;;
9438;SDS011;5176;42.622;25.386;2023-08-17T03:52:12;15.02;;;9.95;;
9438;SDS011;5176;42.622;25.386;2023-08-17T03:54:39;10.93;;;9.70;;
9438;SDS011;5176;42.622;25.386;2023-08-17T03:57:08;10.05;;;9.15;;
9438;SDS011;5176;42.622;25.386;2023-08-17T03:59:35;10.52;;;9.35;;
9438;SDS011;5176;42.622;25.386;2023-08-17T04:02:02;11.50;;;9.93;;
9438;SDS011;5176;42.622;25.386;2023-08-17T04:04:29;9.95;;;9.07;;
9438;SDS011;5176;42.622;25.386;2023-08-17T04:06:57;9.98;;;8.55;;
9438;SDS011;5176;42.622;25.386;2023-08-17T04:09:24;10.57;;;8.65;;
9438;SDS011;5176;42.622;25.386;2023-08-17T04:11:52;10.25;;;8.82;;
9438;SDS011;5176;42.622;25.386;2023-08-17T04:14:21;9.60;;;8.63;;
9438;SDS011;5176;42.622;25.386;2023-08-17T04:16:48;14.00;;;8.93;;
9438;SDS011;5176;42.622;25.386;2023-08-17T04:19:15;10.65;;;9.40;;
9438;SDS011;5176;42.622;25.386;2023-08-17T04:21:43;10.75;;;9.23;;
9438;SDS011;5176;42.622;25.386;2023-08-17T04:24:10;11.10;;;9.77;;
9438;SDS011;5176;42.622;25.386;2023-08-17T04:26:37;14.20;;;9.45;;
9438;SDS011;5176;42.622;25.386;2023-08-17T04:29:05;10.82;;;9.73;;
9438;SDS011;5176;42.622;25.386;2023-08-17T04:31:33;10.75;;;9.55;;
9438;SDS011;5176;42.622;25.386;2023-08-17T04:34:01;11.85;;;10.20;;
9438;SDS011;5176;42.622;25.386;2023-08-17T04:36:28;13.60;;;9.90;;
9438;SDS011;5176;42.622;25.386;2023-08-17T04:38:55;11.88;;;10.13;;
9438;SDS011;5176;42.622;25.386;2023-08-17T04:41:22;11.25;;;9.55;;
9438;SDS011;5176;42.622;25.386;2023-08-17T04:43:49;12.75;;;9.38;;
9438;SDS011;5176;42.622;25.386;2023-08-17T04:46:17;10.15;;;9.10;;
9438;SDS011;5176;42.622;25.386;2023-08-17T04:48:45;12.88;;;9.13;;
9438;SDS011;5176;42.622;25.386;2023-08-17T04:51:13;12.60;;;8.48;;
9438;SDS011;5176;42.622;25.386;2023-08-17T04:53:40;9.65;;;8.75;;
9438;SDS011;5176;42.622;25.386;2023-08-17T04:56:07;10.48;;;9.48;;
9438;SDS011;5176;42.622;25.386;2023-08-17T04:58:34;10.27;;;8.80;;
9438;SDS011;5176;42.622;25.386;2023-08-17T05:01:02;13.40;;;9.13;;
9438;SDS011;5176;42.622;25.386;2023-08-17T05:03:29;10.38;;;9.05;;
9438;SDS011;5176;42.622;25.386;2023-08-17T05:05:58;12.50;;;8.88;;
9438;SDS011;5176;42.622;25.386;2023-08-17T05:08:25;9.57;;;8.65;;
9438;SDS011;5176;42.622;25.386;2023-08-17T05:10:52;12.93;;;8.80;;
9438;SDS011;5176;42.622;25.386;2023-08-17T05:13:20;9.65;;;8.63;;
9438;SDS011;5176;42.622;25.386;2023-08-17T05:15:47;9.93;;;8.90;;
9438;SDS011;5176;42.622;25.386;2023-08-17T05:18:14;11.77;;;9.13;;
9438;SDS011;5176;42.622;25.386;2023-08-17T05:20:41;11.13;;;8.40;;
9438;SDS011;5176;42.622;25.386;2023-08-17T05:23:10;9.50;;;8.50;;
9438;SDS011;5176;42.622;25.386;2023-08-17T05:25:37;9.30;;;8.07;;
9438;SDS011;5176;42.622;25.386;2023-08-17T05:28:05;9.25;;;8.38;;
9438;SDS011;5176;42.622;25.386;2023-08-17T05:30:32;8.50;;;7.57;;
9438;SDS011;5176;42.622;25.386;2023-08-17T05:33:00;9.57;;;7.65;;
9438;SDS011;5176;42.622;25.386;2023-08-17T05:35:27;9.68;;;8.13;;
9438;SDS011;5176;42.622;25.386;2023-08-17T05:37:55;8.75;;;7.75;;
9438;SDS011;5176;42.622;25.386;2023-08-17T05:40:24;8.65;;;7.85;;
9438;SDS011;5176;42.622;25.386;2023-08-17T05:42:51;8.52;;;7.65;;
9438;SDS011;5176;42.622;25.386;2023-08-17T05:45:18;9.20;;;8.30;;
9438;SDS011;5176;42.622;25.386;2023-08-17T05:47:46;9.25;;;8.23;;
9438;SDS011;5176;42.622;25.386;2023-08-17T05:50:13;9.57;;;8.60;;
9438;SDS011;5176;42.622;25.386;2023-08-17T05:52:41;11.50;;;8.70;;
9438;SDS011;5176;42.622;25.386;2023-08-17T05:55:08;8.93;;;8.13;;
9438;SDS011;5176;42.622;25.386;2023-08-17T05:57:37;8.88;;;7.88;;
9438;SDS011;5176;42.622;25.386;2023-08-17T06:00:05;9.18;;;8.18;;
9438;SDS011;5176;42.622;25.386;2023-08-17T06:02:35;9.55;;;7.75;;
9438;SDS011;5176;42.622;25.386;2023-08-17T06:05:03;8.73;;;8.02;;
9438;SDS011;5176;42.622;25.386;2023-08-17T06:07:30;9.38;;;8.40;;
9438;SDS011;5176;42.622;25.386;2023-08-17T06:09:58;9.00;;;8.10;;
9438;SDS011;5176;42.622;25.386;2023-08-17T06:12:25;10.40;;;8.13;;
9438;SDS011;5176;42.622;25.386;2023-08-17T06:14:53;9.73;;;7.40;;
9438;SDS011;5176;42.622;25.386;2023-08-17T06:17:21;8.20;;;7.40;;
9438;SDS011;5176;42.622;25.386;2023-08-17T06:19:48;9.15;;;7.30;;
9438;SDS011;5176;42.622;25.386;2023-08-17T06:22:15;8.57;;;7.45;;
9438;SDS011;5176;42.622;25.386;2023-08-17T06:24:42;8.77;;;7.82;;
9438;SDS011;5176;42.622;25.386;2023-08-17T06:27:13;8.30;;;7.60;;
9438;SDS011;5176;42.622;25.386;2023-08-17T06:29:41;7.82;;;7.13;;
9438;SDS011;5176;42.622;25.386;2023-08-17T06:32:10;10.32;;;6.80;;
9438;SDS011;5176;42.622;25.386;2023-08-17T06:34:38;8.07;;;6.05;;
9438;SDS011;5176;42.622;25.386;2023-08-17T06:37:05;9.85;;;7.00;;
9438;SDS011;5176;42.622;25.386;2023-08-17T06:39:32;7.55;;;6.70;;
9438;SDS011;5176;42.622;25.386;2023-08-17T06:41:59;7.03;;;6.38;;
9438;SDS011;5176;42.622;25.386;2023-08-17T06:44:26;10.32;;;6.60;;
9438;SDS011;5176;42.622;25.386;2023-08-17T06:46:54;8.77;;;6.38;;
9438;SDS011;5176;42.622;25.386;2023-08-17T06:49:23;6.57;;;5.90;;
9438;SDS011;5176;42.622;25.386;2023-08-17T06:51:51;10.32;;;5.45;;
9438;SDS011;5176;42.622;25.386;2023-08-17T06:54:18;5.68;;;5.05;;
9438;SDS011;5176;42.622;25.386;2023-08-17T06:56:45;9.63;;;5.25;;
9438;SDS011;5176;42.622;25.386;2023-08-17T06:59:12;8.63;;;5.03;;
9438;SDS011;5176;42.622;25.386;2023-08-17T07:01:40;8.32;;;5.53;;
9438;SDS011;5176;42.622;25.386;2023-08-17T07:04:07;6.13;;;4.50;;
9438;SDS011;5176;42.622;25.386;2023-08-17T07:06:36;7.65;;;4.50;;
9438;SDS011;5176;42.622;25.386;2023-08-17T07:09:03;7.28;;;4.72;;
9438;SDS011;5176;42.622;25.386;2023-08-17T07:11:30;5.53;;;4.30;;
9438;SDS011;5176;42.622;25.386;2023-08-17T07:13:58;5.90;;;4.78;;
9438;SDS011;5176;42.622;25.386;2023-08-17T07:16:25;4.93;;;4.40;;
9438;SDS011;5176;42.622;25.386;2023-08-17T07:18:53;4.90;;;4.05;;
9438;SDS011;5176;42.622;25.386;2023-08-17T07:21:20;5.72;;;4.65;;
9438;SDS011;5176;42.622;25.386;2023-08-17T07:23:49;7.45;;;4.53;;
9438;SDS011;5176;42.622;25.386;2023-08-17T07:26:17;5.80;;;4.63;;
9438;SDS011;5176;42.622;25.386;2023-08-17T07:28:45;5.82;;;4.85;;
9438;SDS011;5176;42.622;25.386;2023-08-17T07:31:13;5.13;;;4.40;;
9438;SDS011;5176;42.622;25.386;2023-08-17T07:33:41;5.55;;;4.60;;
9438;SDS011;5176;42.622;25.386;2023-08-17T07:36:08;5.30;;;4.53;;
9438;SDS011;5176;42.622;25.386;2023-08-17T07:38:35;7.63;;;4.40;;
9438;SDS011;5176;42.622;25.386;2023-08-17T07:41:04;6.53;;;4.38;;
9438;SDS011;5176;42.622;25.386;2023-08-17T07:43:31;5.20;;;4.30;;
9438;SDS011;5176;42.622;25.386;2023-08-17T07:45:59;6.00;;;4.30;;
9438;SDS011;5176;42.622;25.386;2023-08-17T07:48:26;5.50;;;4.22;;
9438;SDS011;5176;42.622;25.386;2023-08-17T07:50:58;7.47;;;4.72;;
9438;SDS011;5176;42.622;25.386;2023-08-17T07:53:26;5.22;;;4.10;;
9438;SDS011;5176;42.622;25.386;2023-08-17T07:55:53;4.40;;;3.83;;
9438;SDS011;5176;42.622;25.386;2023-08-17T07:58:22;5.45;;;4.13;;
9438;SDS011;5176;42.622;25.386;2023-08-17T08:00:50;7.60;;;4.43;;
9438;SDS011;5176;42.622;25.386;2023-08-17T08:03:17;5.50;;;4.05;;
9438;SDS011;5176;42.622;25.386;2023-08-17T08:05:45;4.63;;;4.22;;
9438;SDS011;5176;42.622;25.386;2023-08-17T08:08:12;4.57;;;3.90;;
9438;SDS011;5176;42.622;25.386;2023-08-17T08:10:42;8.55;;;4.57;;
9438;SDS011;5176;42.622;25.386;2023-08-17T08:13:10;6.25;;;4.65;;
9438;SDS011;5176;42.622;25.386;2023-08-17T08:15:38;6.25;;;4.60;;
9438;SDS011;5176;42.622;25.386;2023-08-17T08:18:06;5.95;;;4.38;;
9438;SDS011;5176;42.622;25.386;2023-08-17T08:20:33;4.95;;;4.18;;
9438;SDS011;5176;42.622;25.386;2023-08-17T08:23:00;5.70;;;4.13;;
9438;SDS011;5176;42.622;25.386;2023-08-17T08:25:28;6.43;;;4.25;;
9438;SDS011;5176;42.622;25.386;2023-08-17T08:27:56;5.68;;;4.20;;
9438;SDS011;5176;42.622;25.386;2023-08-17T08:30:23;4.50;;;4.10;;
9438;SDS011;5176;42.622;25.386;2023-08-17T08:32:52;4.80;;;3.70;;
9438;SDS011;5176;42.622;25.386;2023-08-17T08:35:21;6.68;;;4.68;;
9438;SDS011;5176;42.622;25.386;2023-08-17T08:37:49;4.47;;;4.05;;
9438;SDS011;5176;42.622;25.386;2023-08-17T08:40:17;7.18;;;4.40;;
9438;SDS011;5176;42.622;25.386;2023-08-17T08:42:45;9.93;;;4.47;;
9438;SDS011;5176;42.622;25.386;2023-08-17T08:45:12;5.28;;;4.13;;
9438;SDS011;5176;42.622;25.386;2023-08-17T08:47:40;4.82;;;4.43;;
9438;SDS011;5176;42.622;25.386;2023-08-17T08:50:10;4.85;;;4.45;;
9438;SDS011;5176;42.622;25.386;2023-08-17T08:52:44;4.50;;;4.13;;
9438;SDS011;5176;42.622;25.386;2023-08-17T08:55:21;4.63;;;4.13;;
9438;SDS011;5176;42.622;25.386;2023-08-17T08:57:50;5.28;;;4.70;;
9438;SDS011;5176;42.622;25.386;2023-08-17T09:00:20;4.78;;;4.38;;
9438;SDS011;5176;42.622;25.386;2023-08-17T09:02:48;5.75;;;3.95;;
9438;SDS011;5176;42.622;25.386;2023-08-17T09:05:17;4.20;;;3.90;;
9438;SDS011;5176;42.622;25.386;2023-08-17T09:07:45;5.10;;;4.70;;
9438;SDS011;5176;42.622;25.386;2023-08-17T09:10:15;4.82;;;4.43;;
9438;SDS011;5176;42.622;25.386;2023-08-17T09:12:43;5.78;;;4.47;;
9438;SDS011;5176;42.622;25.386;2023-08-17T09:15:12;7.68;;;4.80;;
9438;SDS011;5176;42.622;25.386;2023-08-17T09:17:39;6.60;;;4.90;;
9438;SDS011;5176;42.622;25.386;2023-08-17T09:20:08;5.47;;;4.97;;
9438;SDS011;5176;42.622;25.386;2023-08-17T09:22:41;6.82;;;4.40;;
9438;SDS011;5176;42.622;25.386;2023-08-17T09:25:10;4.80;;;4.40;;
9438;SDS011;5176;42.622;25.386;2023-08-17T09:27:38;8.43;;;4.93;;
9438;SDS011;5176;42.622;25.386;2023-08-17T09:30:07;5.47;;;4.30;;
9438;SDS011;5176;42.622;25.386;2023-08-17T09:32:36;5.53;;;4.60;;
9438;SDS011;5176;42.622;25.386;2023-08-17T09:35:04;5.00;;;4.57;;
9438;SDS011;5176;42.622;25.386;2023-08-17T09:37:33;4.93;;;4.50;;
9438;SDS011;5176;42.622;25.386;2023-08-17T09:40:02;5.75;;;4.60;;
9438;SDS011;5176;42.622;25.386;2023-08-17T09:42:30;4.78;;;4.35;;
9438;SDS011;5176;42.622;25.386;2023-08-17T09:45:01;6.00;;;4.60;;
9438;SDS011;5176;42.622;25.386;2023-08-17T09:47:29;6.78;;;4.97;;
9438;SDS011;5176;42.622;25.386;2023-08-17T09:49:56;4.90;;;4.50;;
9438;SDS011;5176;42.622;25.386;2023-08-17T09:52:24;4.88;;;4.47;;
9438;SDS011;5176;42.622;25.386;2023-08-17T09:54:51;10.68;;;4.93;;
9438;SDS011;5176;42.622;25.386;2023-08-17T09:57:21;6.72;;;5.32;;
9438;SDS011;5176;42.622;25.386;2023-08-17T09:59:50;4.88;;;4.45;;
9438;SDS011;5176;42.622;25.386;2023-08-17T10:02:17;5.22;;;4.72;;
9438;SDS011;5176;42.622;25.386;2023-08-17T10:04:47;5.40;;;4.90;;
9438;SDS011;5176;42.622;25.386;2023-08-17T10:07:17;9.10;;;5.05;;
9438;SDS011;5176;42.622;25.386;2023-08-17T10:09:48;4.93;;;4.53;;
9438;SDS011;5176;42.622;25.386;2023-08-17T10:12:32;6.75;;;4.72;;
9438;SDS011;5176;42.622;25.386;2023-08-17T10:15:03;7.07;;;4.90;;
9438;SDS011;5176;42.622;25.386;2023-08-17T10:17:35;5.20;;;4.57;;
9438;SDS011;5176;42.622;25.386;2023-08-17T10:20:10;4.85;;;4.45;;
9438;SDS011;5176;42.622;25.386;2023-08-17T10:22:39;7.25;;;5.22;;
9438;SDS011;5176;42.622;25.386;2023-08-17T10:25:11;6.20;;;4.40;;
9438;SDS011;5176;42.622;25.386;2023-08-17T10:27:41;5.30;;;4.80;;
9438;SDS011;5176;42.622;25.386;2023-08-17T10:30:10;5.90;;;4.93;;
9438;SDS011;5176;42.622;25.386;2023-08-17T10:32:38;5.30;;;4.90;;
9438;SDS011;5176;42.622;25.386;2023-08-17T10:35:10;5.28;;;4.88;;
9438;SDS011;5176;42.622;25.386;2023-08-17T10:37:38;5.30;;;4.80;;
9438;SDS011;5176;42.622;25.386;2023-08-17T10:40:06;5.53;;;4.40;;
9438;SDS011;5176;42.622;25.386;2023-08-17T10:42:35;5.57;;;5.05;;
9438;SDS011;5176;42.622;25.386;2023-08-17T10:45:24;5.50;;;5.10;;
9438;SDS011;5176;42.622;25.386;2023-08-17T10:47:59;5.10;;;4.60;;
9438;SDS011;5176;42.622;25.386;2023-08-17T10:50:58;5.53;;;5.07;;
9438;SDS011;5176;42.622;25.386;2023-08-17T10:53:27;5.30;;;4.80;;
9438;SDS011;5176;42.622;25.386;2023-08-17T10:56:06;7.65;;;5.00;;
9438;SDS011;5176;42.622;25.386;2023-08-17T10:58:35;5.50;;;4.80;;
9438;SDS011;5176;42.622;25.386;2023-08-17T11:01:04;5.50;;;5.00;;
9438;SDS011;5176;42.622;25.386;2023-08-17T11:03:32;7.10;;;4.93;;
9438;SDS011;5176;42.622;25.386;2023-08-17T11:06:14;5.68;;;4.30;;
9438;SDS011;5176;42.622;25.386;2023-08-17T11:11:32;5.22;;;4.85;;
9438;SDS011;5176;42.622;25.386;2023-08-17T11:14:00;5.10;;;4.70;;
9438;SDS011;5176;42.622;25.386;2023-08-17T11:16:29;5.38;;;4.97;;
9438;SDS011;5176;42.622;25.386;2023-08-17T11:18:56;5.72;;;4.78;;
9438;SDS011;5176;42.622;25.386;2023-08-17T11:21:25;5.68;;;5.18;;
9438;SDS011;5176;42.622;25.386;2023-08-17T11:23:55;5.82;;;4.60;;
9438;SDS011;5176;42.622;25.386;2023-08-17T11:26:23;7.57;;;4.65;;
9438;SDS011;5176;42.622;25.386;2023-08-17T11:28:51;5.30;;;4.85;;
9438;SDS011;5176;42.622;25.386;2023-08-17T11:31:18;5.38;;;5.03;;
9438;SDS011;5176;42.622;25.386;2023-08-17T11:33:47;5.53;;;4.43;;
9438;SDS011;5176;42.622;25.386;2023-08-17T11:36:15;5.80;;;4.75;;
9438;SDS011;5176;42.622;25.386;2023-08-17T11:38:43;4.97;;;4.57;;
9438;SDS011;5176;42.622;25.386;2023-08-17T11:41:11;6.20;;;4.82;;
9438;SDS011;5176;42.622;25.386;2023-08-17T11:43:40;5.03;;;4.63;;
9438;SDS011;5176;42.622;25.386;2023-08-17T11:46:07;4.82;;;4.43;;
9438;SDS011;5176;42.622;25.386;2023-08-17T11:48:35;4.75;;;4.35;;
9438;SDS011;5176;42.622;25.386;2023-08-17T11:51:05;4.55;;;4.20;;
9438;SDS011;5176;42.622;25.386;2023-08-17T11:53:35;4.45;;;4.05;;
9438;SDS011;5176;42.622;25.386;2023-08-17T11:56:04;5.18;;;4.55;;
9438;SDS011;5176;42.622;25.386;2023-08-17T11:58:41;5.25;;;4.40;;
9438;SDS011;5176;42.622;25.386;2023-08-17T12:01:09;5.20;;;4.70;;
9438;SDS011;5176;42.622;25.386;2023-08-17T12:03:38;5.57;;;5.07;;
9438;SDS011;5176;42.622;25.386;2023-08-17T12:06:07;4.90;;;4.60;;
9438;SDS011;5176;42.622;25.386;2023-08-17T12:08:35;5.20;;;4.70;;
9438;SDS011;5176;42.622;25.386;2023-08-17T12:11:03;5.38;;;4.88;;
9438;SDS011;5176;42.622;25.386;2023-08-17T12:13:32;6.85;;;4.47;;
9438;SDS011;5176;42.622;25.386;2023-08-17T12:16:00;9.18;;;4.43;;
9438;SDS011;5176;42.622;25.386;2023-08-17T12:18:28;4.82;;;4.43;;
9438;SDS011;5176;42.622;25.386;2023-08-17T12:20:59;4.70;;;4.40;;
9438;SDS011;5176;42.622;25.386;2023-08-17T12:23:28;4.57;;;4.20;;
9438;SDS011;5176;42.622;25.386;2023-08-17T12:25:55;6.03;;;4.47;;
9438;SDS011;5176;42.622;25.386;2023-08-17T12:28:23;7.43;;;5.15;;
9438;SDS011;5176;42.622;25.386;2023-08-17T12:30:57;5.35;;;4.85;;
9438;SDS011;5176;42.622;25.386;2023-08-17T12:33:25;5.47;;;5.07;;
9438;SDS011;5176;42.622;25.386;2023-08-17T12:35:53;5.20;;;4.80;;
9438;SDS011;5176;42.622;25.386;2023-08-17T12:38:21;5.68;;;5.18;;
9438;SDS011;5176;42.622;25.386;2023-08-17T12:40:51;6.47;;;4.78;;
9438;SDS011;5176;42.622;25.386;2023-08-17T12:43:19;5.90;;;4.85;;
9438;SDS011;5176;42.622;25.386;2023-08-17T12:45:46;5.22;;;4.82;;
9438;SDS011;5176;42.622;25.386;2023-08-17T12:48:14;5.40;;;4.93;;
9438;SDS011;5176;42.622;25.386;2023-08-17T12:50:41;5.40;;;4.90;;
9438;SDS011;5176;42.622;25.386;2023-08-17T12:53:09;5.20;;;4.80;;
9438;SDS011;5176;42.622;25.386;2023-08-17T12:55:36;5.97;;;5.40;;
9438;SDS011;5176;42.622;25.386;2023-08-17T12:58:07;5.85;;;5.15;;
9438;SDS011;5176;42.622;25.386;2023-08-17T13:00:36;6.57;;;5.88;;
9438;SDS011;5176;42.622;25.386;2023-08-17T13:03:03;7.32;;;5.80;;
9438;SDS011;5176;42.622;25.386;2023-08-17T13:05:32;6.20;;;5.55;;
9438;SDS011;5176;42.622;25.386;2023-08-17T13:07:59;9.27;;;5.97;;
9438;SDS011;5176;42.622;25.386;2023-08-17T13:10:27;6.07;;;5.57;;
9438;SDS011;5176;42.622;25.386;2023-08-17T13:12:54;6.20;;;5.55;;
9438;SDS011;5176;42.622;25.386;2023-08-17T13:15:26;6.40;;;5.82;;
9438;SDS011;5176;42.622;25.386;2023-08-17T13:17:53;6.07;;;5.57;;
9438;SDS011;5176;42.622;25.386;2023-08-17T13:20:20;6.07;;;5.57;;
9438;SDS011;5176;42.622;25.386;2023-08-17T13:22:48;6.32;;;5.50;;
9438;SDS011;5176;42.622;25.386;2023-08-17T13:25:16;6.03;;;5.50;;
9438;SDS011;5176;42.622;25.386;2023-08-17T13:27:43;6.43;;;5.93;;
9438;SDS011;5176;42.622;25.386;2023-08-17T13:30:11;6.32;;;5.82;;
9438;SDS011;5176;42.622;25.386;2023-08-17T13:32:40;6.63;;;6.03;;
9438;SDS011;5176;42.622;25.386;2023-08-17T13:35:08;6.80;;;6.20;;
9438;SDS011;5176;42.622;25.386;2023-08-17T13:37:36;7.75;;;6.10;;
9438;SDS011;5176;42.622;25.386;2023-08-17T13:40:04;8.90;;;6.15;;
9438;SDS011;5176;42.622;25.386;2023-08-17T13:42:32;6.45;;;5.88;;
9438;SDS011;5176;42.622;25.386;2023-08-17T13:45:00;6.18;;;5.68;;
9438;SDS011;5176;42.622;25.386;2023-08-17T13:47:27;8.50;;;5.85;;
9438;SDS011;5176;42.622;25.386;2023-08-17T13:49:56;6.40;;;5.80;;
9438;SDS011;5176;42.622;25.386;2023-08-17T13:52:24;9.38;;;5.82;;
9438;SDS011;5176;42.622;25.386;2023-08-17T13:54:52;6.80;;;6.20;;
9438;SDS011;5176;42.622;25.386;2023-08-17T13:57:19;7.20;;;5.90;;
9438;SDS011;5176;42.622;25.386;2023-08-17T13:59:47;6.85;;;6.00;;
9438;SDS011;5176;42.622;25.386;2023-08-17T14:02:14;7.30;;;6.32;;
9438;SDS011;5176;42.622;25.386;2023-08-17T14:04:41;6.72;;;6.13;;
9438;SDS011;5176;42.622;25.386;2023-08-17T14:07:10;7.55;;;6.68;;
9438;SDS011;5176;42.622;25.386;2023-08-17T14:09:37;6.90;;;6.40;;
9438;SDS011;5176;42.622;25.386;2023-08-17T14:12:05;9.65;;;6.20;;
9438;SDS011;5176;42.622;25.386;2023-08-17T14:14:32;6.90;;;6.32;;
9438;SDS011;5176;42.622;25.386;2023-08-17T14:17:00;6.85;;;6.15;;
9438;SDS011;5176;42.622;25.386;2023-08-17T14:19:28;7.35;;;5.88;;
9438;SDS011;5176;42.622;25.386;2023-08-17T14:21:56;7.45;;;6.75;;
9438;SDS011;5176;42.622;25.386;2023-08-17T14:24:27;6.63;;;6.13;;
9438;SDS011;5176;42.622;25.386;2023-08-17T14:26:54;6.70;;;6.10;;
9438;SDS011;5176;42.622;25.386;2023-08-17T14:29:23;7.25;;;6.63;;
9438;SDS011;5176;42.622;25.386;2023-08-17T14:31:51;6.72;;;6.13;;
9438;SDS011;5176;42.622;25.386;2023-08-17T14:34:18;9.00;;;6.50;;
9438;SDS011;5176;42.622;25.386;2023-08-17T14:36:46;7.00;;;6.30;;
9438;SDS011;5176;42.622;25.386;2023-08-17T14:39:14;7.10;;;6.38;;
9438;SDS011;5176;42.622;25.386;2023-08-17T14:41:42;7.57;;;6.68;;
9438;SDS011;5176;42.622;25.386;2023-08-17T14:44:10;7.53;;;6.82;;
9438;SDS011;5176;42.622;25.386;2023-08-17T14:46:37;7.38;;;6.55;;
9438;SDS011;5176;42.622;25.386;2023-08-17T14:49:05;7.30;;;6.63;;
9438;SDS011;5176;42.622;25.386;2023-08-17T14:51:36;7.45;;;6.75;;
9438;SDS011;5176;42.622;25.386;2023-08-17T14:54:04;9.43;;;7.53;;
9438;SDS011;5176;42.622;25.386;2023-08-17T14:56:32;8.32;;;7.57;;
9438;SDS011;5176;42.622;25.386;2023-08-17T14:59:01;7.65;;;6.90;;
9438;SDS011;5176;42.622;25.386;2023-08-17T15:01:28;7.38;;;6.70;;
9438;SDS011;5176;42.622;25.386;2023-08-17T15:03:56;7.43;;;6.72;;
9438;SDS011;5176;42.622;25.386;2023-08-17T15:06:23;7.70;;;6.88;;
9438;SDS011;5176;42.622;25.386;2023-08-17T15:08:51;7.07;;;6.43;;